waehrungsrechner-euro.com alexa rank chart, waehrungsrechner-euro.com alexa rank daily changes

waehrungsrechner-euro.com alexa rank chart, waehrungsrechner-euro.com alexa rank daily changes

waehrungsrechner-euro.com
Actual rank:
269 588

RANK HISTORY

Date Rank Diff
2019/06/24 269 588 -395 855
2019/06/22 665 443 +19 656
2019/06/21 645 787 +389 121
2019/06/20 256 666 -303 540
2019/06/18 560 206 +291 770
2019/06/17 268 436 -388 719
2019/06/15 657 155 +398 297
2019/06/14 258 858 -438 079
2019/06/13 696 937 +543 206
2019/06/09 153 731 -155 607
2019/06/08 309 338 -819
2019/06/07 310 157 -369 554
2019/06/06 679 711 +313 691
2019/06/05 366 020 -227 288
2019/06/04 593 308 +324 400
2019/06/03 268 908 -145 691
2019/05/31 414 599 -306 753
2019/05/30 721 352 +581 954
2019/05/29 139 398 -82 480
2019/05/28 221 878 -481 199
2019/05/24 703 077 +381 326
2019/05/22 321 751 -292 637
2019/05/21 614 388 +107 498
2019/05/20 506 890 -139 886
2019/05/19 646 776 +225 313
2019/05/18 421 463 -262 538
2019/05/17 684 001 -25 496
2019/05/16 709 497 +347 383
2019/05/15 362 114 -243 527
2019/05/14 605 641 +337 571
2019/05/11 268 070 -86 858
2019/05/10 354 928 -565
2019/05/09 355 493 +18 846
2019/05/08 336 647 -220 494
2019/05/07 557 141 +263 525
2019/05/06 293 616 -371 909
2019/05/03 665 525 -3 190
2019/05/02 668 715 +293 746
2019/05/01 374 969 -225 089
2019/04/29 600 058 +343 703
2019/04/28 256 355 +50 753
2019/04/27 205 602 -157 166
2019/04/26 362 768

WIDGET FOR YOUR SITE

DOMAINS WITH THE NEAREST RANK

Domain Rank
simplyscience.ch 269 583
teenplanet.info 269 584
tierchenwelt.de 269 585
umfrageonline.com 269 586
vampster.com 269 587
waehrungsrechner-euro.com 269 588
wundercurves.de 269 589
youngporntube.tv 269 590
acolyer.org 269 591
mipctutoriales.com 269 592
iadvize.com 269 593

DOMAINS WITH THE NEAREST RANK BY TLD .com

Domain Rank
insideweddings.com 269 567
c4tracking01.com 269 571
forumside.com 269 575
umfrageonline.com 269 586
vampster.com 269 587
waehrungsrechner-euro.com 269 588
mipctutoriales.com 269 592
iadvize.com 269 593
la-beautenaturelle.com 269 594
templaran.com 269 595
tonal.com 269 598